Time;durP1;ratioP1;P1;durP2;ratioP2;P2;SDS_P1;SDS_P2;PMS_P1;PMS_P2;Temp;Humidity;BMP_temperature;BMP_pressure;BME280_temperature;BME280_humidity;BME280_pressure;Samples;Min_cycle;Max_cycle;Signal;HPM_P1;HPM_P2
2021/01/02 00:01:15;;;;;;;16.70;12.43;;;2.00;99.90;;;;;;5048372;28;20452;-74
2021/01/02 00:03:49;;;;;;;17.52;13.13;;;2.10;99.90;;;;;;5032174;28;20034;-71
2021/01/02 00:06:24;;;;;;;15.68;12.07;;;2.30;99.90;;;;;;5035662;28;20052;-73
2021/01/02 00:08:52;;;;;;;16.20;12.40;;;2.40;99.90;;;;;;5050674;28;20037;-72
2021/01/02 00:11:36;;;;;;;15.85;12.52;;;2.40;96.00;;;;;;5033636;28;20018;-73
2021/01/02 00:14:20;;;;;;;17.02;13.02;;;2.30;99.90;;;;;;5050132;28;20022;-73
2021/01/02 00:17:21;;;;;;;15.55;12.25;;;2.30;92.20;;;;;;5036202;28;20052;-73
2021/01/02 00:20:07;;;;;;;17.70;14.23;;;2.30;98.50;;;;;;5041528;28;20021;-75
2021/01/02 00:22:47;;;;;;;21.77;16.20;;;2.20;99.90;;;;;;5017525;28;20478;-76
2021/01/02 00:25:17;;;;;;;21.95;15.90;;;2.10;99.90;;;;;;5047002;28;20056;-73
2021/01/02 00:27:45;;;;;;;23.70;17.42;;;2.00;99.90;;;;;;5039716;28;20032;-74
2021/01/02 00:30:41;;;;;;;22.42;17.42;;;1.90;99.90;;;;;;5036300;28;20052;-75
2021/01/02 00:33:45;;;;;;;21.90;15.73;;;2.30;99.90;;;;;;5029805;28;20029;-76
2021/01/02 00:36:40;;;;;;;24.17;17.45;;;2.30;99.90;;;;;;5018500;28;20094;-78
2021/01/02 00:39:19;;;;;;;25.10;17.60;;;2.20;99.90;;;;;;5042120;28;20084;-77
2021/01/02 00:41:47;;;;;;;24.17;17.80;;;2.10;99.90;;;;;;5040589;28;20025;-76
2021/01/02 00:44:14;;;;;;;24.02;16.70;;;2.30;99.90;;;;;;5040188;28;20033;-77
2021/01/02 00:46:43;;;;;;;20.58;15.82;;;2.20;99.90;;;;;;5038942;28;20617;-77
2021/01/02 00:49:09;;;;;;;21.15;16.13;;;2.20;99.90;;;;;;5041721;28;20037;-77
2021/01/02 00:51:40;;;;;;;20.08;15.90;;;2.00;99.90;;;;;;5028631;28;20026;-76
2021/01/02 00:54:23;;;;;;;22.83;15.93;;;1.90;99.90;;;;;;5040198;28;20074;-76
2021/01/02 00:57:01;;;;;;;19.45;16.08;;;1.90;99.90;;;;;;5021011;28;20541;-78
2021/01/02 01:00:01;;;;;;;21.13;16.67;;;2.20;99.90;;;;;;5038854;28;20029;-76
2021/01/02 01:02:35;;;;;;;18.65;16.10;;;2.10;99.90;;;;;;5047455;28;20013;-75
2021/01/02 01:05:05;;;;;;;18.98;15.15;;;2.20;99.90;;;;;;5049524;28;20044;-78
2021/01/02 01:07:32;;;;;;;21.65;17.52;;;2.20;99.90;;;;;;5041799;28;20026;-78
2021/01/02 01:10:00;;;;;;;20.67;16.08;;;2.00;99.90;;;;;;5039777;28;20140;-78
2021/01/02 01:12:28;;;;;;;21.83;16.02;;;2.20;99.90;;;;;;5041746;28;20029;-78
2021/01/02 01:14:54;;;;;;;20.23;15.82;;;2.30;99.90;;;;;;5029246;28;20033;-75
2021/01/02 01:17:22;;;;;;;20.02;14.38;;;2.20;99.90;;;;;;5027406;28;20029;-78
2021/01/02 01:19:53;;;;;;;19.73;15.40;;;2.40;99.90;;;;;;5042277;28;20022;-77
2021/01/02 01:22:23;;;;;;;;;;;2.50;70.10;;;;;;5041835;28;20039;-75
2021/01/02 01:25:17;;;;;;;19.70;14.35;;;2.50;89.10;;;;;;5037052;28;19944;-75
2021/01/02 01:27:54;;;;;;;21.55;14.32;;;2.50;93.20;;;;;;5018801;28;20287;-75
2021/01/02 01:30:22;;;;;;;17.02;14.18;;;2.50;69.90;;;;;;5019538;28;20111;-74
2021/01/02 01:33:03;;;;;;;20.00;14.02;;;2.50;68.80;;;;;;5019681;28;20026;-76
2021/01/02 01:35:29;;;;;;;22.23;15.70;;;2.60;50.00;;;;;;5010838;28;20041;-75
2021/01/02 01:37:56;;;;;;;19.13;14.00;;;2.40;48.40;;;;;;5023050;28;20064;-74
2021/01/02 01:40:24;;;;;;;20.67;14.50;;;2.40;63.70;;;;;;5040854;28;20034;-74
2021/01/02 01:43:03;;;;;;;19.00;14.90;;;2.30;64.60;;;;;;5018010;28;20036;-75
2021/01/02 01:45:37;;;;;;;18.17;14.30;;;2.30;59.20;;;;;;5039131;28;20566;-76
2021/01/02 01:48:07;;;;;;;16.33;13.73;;;2.20;92.70;;;;;;5018389;28;20486;-74
2021/01/02 01:50:49;;;;;;;17.77;14.77;;;2.30;86.80;;;;;;5037287;28;20026;-76
2021/01/02 01:53:48;;;;;;;18.92;14.65;;;2.10;73.70;;;;;;5038841;28;20393;-75
2021/01/02 01:56:29;;;;;;;19.67;14.88;;;2.00;99.90;;;;;;5034462;28;20536;-75
2021/01/02 01:59:15;;;;;;;19.63;14.23;;;2.00;99.90;;;;;;5037858;28;20108;-75
2021/01/02 02:01:45;;;;;;;17.60;14.02;;;2.00;99.90;;;;;;5034688;28;20029;-74
2021/01/02 02:04:11;;;;;;;18.27;14.25;;;1.90;99.90;;;;;;5016038;28;20033;-74
2021/01/02 02:06:37;;;;;;;17.92;14.65;;;1.80;99.90;;;;;;5031382;28;20355;-75
2021/01/02 02:09:04;;;;;;;17.38;13.93;;;1.80;99.90;;;;;;5018521;28;20018;-73
2021/01/02 02:11:36;;;;;;;19.88;14.52;;;2.00;99.90;;;;;;4996892;28;20026;-75
2021/01/02 02:14:16;;;;;;;17.95;14.10;;;1.90;99.90;;;;;;5027731;28;20465;-75
2021/01/02 02:16:55;;;;;;;17.98;14.90;;;1.90;99.90;;;;;;5035307;28;20032;-78
2021/01/02 02:19:46;;;;;;;21.33;14.52;;;1.80;99.90;;;;;;5033860;28;20017;-78
2021/01/02 02:22:15;;;;;;;;;;;1.90;99.90;;;;;;5035085;28;20550;-77
2021/01/02 02:24:43;;;;;;;17.83;13.25;;;2.10;99.90;;;;;;5036313;28;20026;-77
2021/01/02 02:27:13;;;;;;;14.38;12.85;;;2.10;99.90;;;;;;5018173;28;20065;-79
2021/01/02 02:30:12;;;;;;;20.90;14.47;;;2.10;99.90;;;;;;5017466;28;20619;-78
2021/01/02 02:32:48;;;;;;;19.45;14.88;;;2.00;99.90;;;;;;5036290;28;20380;-77
2021/01/02 02:35:19;;;;;;;18.38;15.52;;;1.90;99.90;;;;;;5035226;28;20125;-77
2021/01/02 02:37:51;;;;;;;16.45;13.23;;;1.80;99.90;;;;;;5033652;28;20029;-77
2021/01/02 02:40:19;;;;;;;20.45;14.60;;;1.80;99.90;;;;;;5031864;28;20129;-78
2021/01/02 02:42:57;;;;;;;17.17;14.05;;;2.00;99.90;;;;;;5036038;28;20036;-78
2021/01/02 02:45:24;;;;;;;20.10;14.32;;;2.20;99.90;;;;;;5018450;28;20017;-78
2021/01/02 02:48:25;;;;;;;20.67;15.27;;;2.30;97.40;;;;;;5036760;28;20017;-77
2021/01/02 02:51:05;;;;;;;18.17;14.57;;;2.30;93.40;;;;;;5034876;28;20081;-78
2021/01/02 02:53:40;;;;;;;18.30;14.52;;;2.40;90.40;;;;;;5017359;28;20032;-77
2021/01/02 02:56:17;;;;;;;15.73;13.50;;;2.40;66.10;;;;;;5002990;28;20030;-77
2021/01/02 02:58:43;;;;;;;15.25;13.20;;;2.40;58.10;;;;;;5020532;28;20032;-76
2021/01/02 03:01:08;;;;;;;21.02;14.15;;;2.40;80.50;;;;;;5022234;28;20017;-76
2021/01/02 03:03:34;;;;;;;17.10;13.65;;;2.40;61.00;;;;;;5038397;28;20025;-75
2021/01/02 03:06:00;;;;;;;15.63;13.23;;;2.30;39.10;;;;;;5041954;28;20029;-76
2021/01/02 03:08:29;;;;;;;17.02;13.45;;;2.20;74.60;;;;;;5041099;28;20026;-77
2021/01/02 03:10:58;;;;;;;20.98;15.95;;;2.10;92.50;;;;;;5039444;28;20029;-77
2021/01/02 03:13:23;;;;;;;18.75;14.57;;;2.00;99.90;;;;;;5038695;28;20041;-77
2021/01/02 03:15:49;;;;;;;19.70;15.80;;;1.80;99.90;;;;;;5039803;28;20385;-76
2021/01/02 03:18:15;;;;;;;20.55;15.50;;;1.80;99.90;;;;;;5020321;28;20029;-76
2021/01/02 03:20:40;;;;;;;19.40;15.65;;;1.80;99.90;;;;;;5020496;28;20056;-77
2021/01/02 03:23:06;;;;;;;19.48;14.45;;;1.70;99.90;;;;;;5032737;28;20072;-77
2021/01/02 03:25:32;;;;;;;20.08;15.23;;;1.70;99.90;;;;;;5013912;28;20084;-76
2021/01/02 03:27:58;;;;;;;18.30;14.52;;;2.00;99.90;;;;;;5024383;28;20072;-76
2021/01/02 03:30:29;;;;;;;17.88;14.85;;;2.00;99.90;;;;;;5043698;28;20112;-76
2021/01/02 03:32:54;;;;;;;17.88;14.18;;;1.90;99.90;;;;;;5034256;28;20439;-76
2021/01/02 03:35:20;;;;;;;17.50;14.10;;;1.90;99.90;;;;;;5030096;28;20136;-76
2021/01/02 03:37:47;;;;;;;16.00;13.50;;;2.00;99.90;;;;;;5043140;28;20502;-76
2021/01/02 03:40:20;;;;;;;17.17;13.65;;;2.20;99.90;;;;;;5041470;28;20112;-76
2021/01/02 03:42:46;;;;;;;17.13;13.43;;;2.20;96.40;;;;;;5024664;28;20521;-75
2021/01/02 03:45:15;;;;;;;18.85;14.63;;;2.30;91.70;;;;;;5037810;28;20022;-77
2021/01/02 03:47:48;;;;;;;15.13;13.48;;;2.20;52.10;;;;;;5033982;28;20037;-76
2021/01/02 03:50:15;;;;;;;21.50;14.57;;;2.20;98.20;;;;;;5020746;28;20334;-77
2021/01/02 03:52:40;;;;;;;16.98;14.50;;;2.20;90.60;;;;;;5049208;28;20021;-76
2021/01/02 03:55:09;;;;;;;17.88;13.55;;;2.00;94.70;;;;;;5031527;28;20032;-76
2021/01/02 03:57:35;;;;;;;19.65;14.45;;;1.90;99.90;;;;;;5027147;28;20033;-75
2021/01/02 04:00:01;;;;;;;18.40;13.75;;;1.90;99.90;;;;;;5042875;28;20540;-75
2021/01/02 04:02:27;;;;;;;17.13;14.15;;;1.90;99.90;;;;;;5029372;28;20045;-76
2021/01/02 04:04:53;;;;;;;20.73;15.10;;;1.80;99.90;;;;;;5033602;28;20062;-75
2021/01/02 04:07:19;;;;;;;17.42;13.52;;;1.70;99.90;;;;;;5032829;28;20036;-76
2021/01/02 04:09:45;;;;;;;18.48;13.43;;;1.60;99.90;;;;;;5056151;28;20021;-76
2021/01/02 04:12:11;;;;;;;19.45;15.27;;;1.80;99.90;;;;;;5036431;28;20013;-74
2021/01/02 04:14:37;;;;;;;19.45;14.25;;;1.80;99.90;;;;;;5059583;28;20033;-75
2021/01/02 04:17:03;;;;;;;21.23;14.68;;;1.70;99.90;;;;;;5057299;28;20145;-76
2021/01/02 04:19:28;;;;;;;19.45;13.85;;;1.70;99.90;;;;;;5057971;28;20037;-77
2021/01/02 04:21:54;;;;;;;16.90;13.10;;;1.60;99.90;;;;;;5026655;28;20029;-75
2021/01/02 04:24:19;;;;;;;19.38;16.38;;;1.60;99.90;;;;;;5046346;28;20047;-76
2021/01/02 04:26:45;;;;;;;21.77;14.95;;;1.60;99.90;;;;;;5035159;28;20060;-76
2021/01/02 04:29:11;;;;;;;16.95;13.45;;;1.50;99.90;;;;;;5055488;28;20025;-76
2021/01/02 04:31:40;;;;;;;18.48;13.75;;;1.60;99.90;;;;;;5056560;28;20026;-76
2021/01/02 04:34:08;;;;;;;20.38;14.18;;;1.70;99.90;;;;;;5057757;28;20033;-77
2021/01/02 04:36:34;;;;;;;21.88;15.98;;;1.60;99.90;;;;;;5058568;28;20029;-76
2021/01/02 04:39:00;;;;;;;23.10;16.38;;;1.60;99.90;;;;;;5058039;28;20048;-76
2021/01/02 04:41:26;;;;;;;20.45;15.20;;;1.60;99.90;;;;;;5056045;28;20021;-77
2021/01/02 04:43:53;;;;;;;18.52;15.25;;;1.50;99.90;;;;;;5054214;28;20069;-76
2021/01/02 04:46:20;;;;;;;19.50;15.43;;;1.50;99.90;;;;;;5028593;28;20496;-75
2021/01/02 04:48:46;;;;;;;17.88;14.82;;;1.50;99.90;;;;;;5041636;28;20018;-75
2021/01/02 04:51:16;;;;;;;21.23;15.68;;;1.60;99.90;;;;;;5041810;28;20025;-75
2021/01/02 04:53:42;;;;;;;20.45;15.65;;;1.70;99.90;;;;;;5024490;28;20025;-77
2021/01/02 04:56:09;;;;;;;21.40;14.75;;;1.70;99.90;;;;;;5019553;28;20060;-76
2021/01/02 04:58:42;;;;;;;22.02;15.75;;;1.80;99.90;;;;;;5021261;28;20065;-76
2021/01/02 05:01:15;;;;;;;24.98;17.83;;;1.80;99.90;;;;;;5021337;28;20120;-76
2021/01/02 05:03:44;;;;;;;19.48;16.10;;;1.80;99.90;;;;;;5037757;28;20104;-76
2021/01/02 05:06:10;;;;;;;22.73;17.08;;;1.60;99.90;;;;;;5037564;28;20017;-78
2021/01/02 05:08:37;;;;;;;22.08;15.90;;;1.60;99.90;;;;;;5035617;28;20026;-77
2021/01/02 05:11:04;;;;;;;23.30;16.85;;;1.40;99.90;;;;;;5036565;28;20018;-76
2021/01/02 05:13:34;;;;;;;23.58;17.08;;;1.50;99.90;;;;;;5033163;28;20025;-76
2021/01/02 05:16:17;;;;;;;21.83;16.10;;;1.60;99.90;;;;;;5036524;28;20029;-76
2021/01/02 05:19:00;;;;;;;21.13;16.52;;;1.60;99.90;;;;;;5036925;28;20121;-75
2021/01/02 05:21:30;;;;;;;23.10;16.73;;;1.70;99.90;;;;;;5036409;28;20393;-77
2021/01/02 05:24:16;;;;;;;21.15;15.40;;;1.70;99.90;;;;;;5018473;28;20037;-77
2021/01/02 05:26:44;;;;;;;23.40;15.63;;;1.60;99.90;;;;;;5017697;28;20028;-77
2021/01/02 05:29:16;;;;;;;24.60;16.85;;;1.50;99.90;;;;;;5035569;28;20017;-76
2021/01/02 05:31:45;;;;;;;25.17;17.17;;;1.40;99.90;;;;;;5036152;28;20032;-78
2021/01/02 05:34:12;;;;;;;26.20;17.42;;;1.30;99.90;;;;;;5035381;28;20104;-77
2021/01/02 05:36:39;;;;;;;23.88;16.88;;;1.50;99.90;;;;;;5039188;28;20029;-77
2021/01/02 05:39:06;;;;;;;27.88;17.70;;;1.60;99.90;;;;;;5035860;28;20010;-76
2021/01/02 05:41:55;;;;;;;23.02;14.95;;;1.80;99.90;;;;;;5018147;28;20075;-77
2021/01/02 05:44:23;;;;;;;24.98;16.23;;;1.90;99.90;;;;;;5037770;28;20029;-76
2021/01/02 05:46:50;;;;;;;25.80;16.63;;;1.80;99.90;;;;;;5026901;28;20026;-76
2021/01/02 05:49:29;;;;;;;22.30;15.30;;;1.90;99.90;;;;;;5038399;28;20022;-76
2021/01/02 05:51:58;;;;;;;23.10;15.60;;;1.90;99.90;;;;;;5038196;28;20052;-77
2021/01/02 05:54:26;;;;;;;23.30;15.98;;;1.90;99.90;;;;;;5039219;28;20056;-76
2021/01/02 05:56:56;;;;;;;26.30;15.65;;;1.90;99.90;;;;;;5036008;28;20037;-77
2021/01/02 05:59:36;;;;;;;36.58;18.27;;;1.80;99.90;;;;;;5016696;28;20029;-76
2021/01/02 06:02:22;;;;;;;36.67;19.43;;;1.50;99.90;;;;;;5035251;28;20026;-78
2021/01/02 06:05:07;;;;;;;37.33;19.50;;;1.60;99.90;;;;;;5035708;28;20280;-77
2021/01/02 06:07:50;;;;;;;29.30;17.73;;;1.60;99.90;;;;;;5036328;28;20045;-77
2021/01/02 06:10:16;;;;;;;33.80;18.35;;;1.50;99.90;;;;;;5036677;28;20389;-75
2021/01/02 06:12:42;;;;;;;48.72;21.00;;;1.50;99.90;;;;;;5017763;28;20037;-76
2021/01/02 06:15:11;;;;;;;39.88;18.88;;;1.50;99.90;;;;;;5036882;28;20085;-76
2021/01/02 06:17:39;;;;;;;42.38;19.98;;;1.70;99.90;;;;;;5035517;28;20037;-76
2021/01/02 06:20:10;;;;;;;42.53;19.52;;;1.90;99.90;;;;;;5017722;28;20041;-77
2021/01/02 06:22:36;;;;;;;;;;;1.80;99.90;;;;;;5017647;28;20026;-77
2021/01/02 06:25:05;;;;;;;43.00;20.38;;;1.80;99.90;;;;;;5034513;28;19932;-77
2021/01/02 06:27:32;;;;;;;54.75;20.67;;;1.90;99.90;;;;;;5016915;28;20025;-77
2021/01/02 06:30:00;;;;;;;44.30;19.83;;;1.80;99.90;;;;;;5035235;28;20025;-77
2021/01/02 06:32:28;;;;;;;48.38;21.38;;;1.90;99.90;;;;;;5033603;28;20041;-76
2021/01/02 06:35:20;;;;;;;47.92;21.13;;;1.90;99.90;;;;;;5017106;28;20037;-77
2021/01/02 06:37:51;;;;;;;50.63;21.30;;;1.90;99.90;;;;;;5032352;28;20413;-77
2021/01/02 06:40:24;;;;;;;54.08;24.23;;;1.80;99.90;;;;;;5040236;28;20434;-78
2021/01/02 06:42:59;;;;;;;45.20;21.15;;;1.80;99.90;;;;;;5040627;28;20053;-78
2021/01/02 06:45:42;;;;;;;51.63;21.80;;;1.80;99.90;;;;;;5041461;28;20068;-75
2021/01/02 06:48:16;;;;;;;54.42;21.67;;;1.80;99.90;;;;;;5040388;28;20097;-75
2021/01/02 06:50:48;;;;;;;51.22;21.48;;;1.80;99.90;;;;;;5008310;28;20025;-77
2021/01/02 06:53:25;;;;;;;50.28;23.05;;;1.80;99.90;;;;;;5040121;28;20029;-76
2021/01/02 06:55:57;;;;;;;53.92;20.67;;;1.80;99.90;;;;;;5040330;28;20087;-76
2021/01/02 06:58:23;;;;;;;50.45;21.13;;;1.80;99.90;;;;;;5013672;28;20029;-77
2021/01/02 07:00:48;;;;;;;51.85;21.65;;;1.70;99.90;;;;;;5040826;28;20022;-77
2021/01/02 07:03:39;;;;;;;45.90;21.42;;;1.70;99.90;;;;;;5041039;28;20131;-75
2021/01/02 07:06:23;;;;;;;49.63;20.40;;;1.70;99.90;;;;;;5023372;28;20109;-76
2021/01/02 07:08:58;;;;;;;58.03;23.00;;;1.70;99.90;;;;;;5032117;28;20060;-77
2021/01/02 07:11:39;;;;;;;51.40;21.10;;;1.70;99.90;;;;;;5040318;28;20057;-77
2021/01/02 07:14:11;;;;;;;47.92;20.55;;;1.60;99.90;;;;;;5020517;28;20547;-77
2021/01/02 07:16:37;;;;;;;45.45;20.02;;;1.70;99.90;;;;;;5020245;28;20025;-76
2021/01/02 07:19:06;;;;;;;47.63;21.00;;;1.70;99.90;;;;;;5037307;28;20028;-76
2021/01/02 07:21:36;;;;;;;52.40;23.10;;;1.80;99.90;;;;;;5039834;28;20060;-76
2021/01/02 07:24:23;;;;;;;39.03;21.50;;;1.70;99.90;;;;;;5039297;28;20542;-77
2021/01/02 07:26:56;;;;;;;34.28;18.67;;;1.70;99.90;;;;;;5023589;28;20386;-76
2021/01/02 07:29:22;;;;;;;37.03;19.60;;;1.70;99.90;;;;;;5028570;28;20040;-76
2021/01/02 07:32:13;;;;;;;41.30;21.00;;;1.80;99.90;;;;;;5048879;28;20101;-78
2021/01/02 07:34:48;;;;;;;40.00;19.35;;;1.80;99.90;;;;;;5039001;28;20037;-75
2021/01/02 07:37:15;;;;;;;34.20;18.98;;;1.80;99.90;;;;;;5028504;28;20032;-76
2021/01/02 07:39:52;;;;;;;42.53;20.98;;;1.80;99.90;;;;;;5019504;28;20025;-75
2021/01/02 07:42:20;;;;;;;36.03;19.98;;;1.90;99.90;;;;;;5021312;28;20095;-76
2021/01/02 07:44:53;;;;;;;41.20;21.95;;;1.80;99.90;;;;;;5037783;28;20493;-77
2021/01/02 07:47:19;;;;;;;39.88;20.50;;;1.90;99.90;;;;;;5020891;28;20112;-77
2021/01/02 07:49:44;;;;;;;37.28;19.08;;;2.00;99.90;;;;;;5038377;28;20050;-76
2021/01/02 07:52:11;;;;;;;34.42;19.08;;;1.80;99.90;;;;;;5037440;28;20438;-77
2021/01/02 07:54:38;;;;;;;38.83;20.95;;;1.80;99.90;;;;;;5019639;28;20025;-76
2021/01/02 07:57:06;;;;;;;42.58;21.92;;;1.90;99.90;;;;;;5021364;28;20064;-77
2021/01/02 07:59:33;;;;;;;39.58;21.40;;;1.90;99.90;;;;;;5037349;28;20029;-77
2021/01/02 08:02:03;;;;;;;45.65;22.42;;;1.80;99.90;;;;;;5038036;28;20030;-77
2021/01/02 08:04:30;;;;;;;34.85;18.67;;;1.70;99.90;;;;;;5037552;28;20342;-77
2021/01/02 08:07:01;;;;;;;44.42;19.83;;;1.90;99.90;;;;;;5038167;28;20030;-76
2021/01/02 08:09:28;;;;;;;40.78;21.88;;;1.90;99.90;;;;;;5039314;28;20381;-77
2021/01/02 08:11:56;;;;;;;38.92;20.48;;;2.00;99.90;;;;;;5036839;28;20030;-77
2021/01/02 08:14:23;;;;;;;40.92;21.60;;;2.00;99.90;;;;;;5019395;28;20018;-77
2021/01/02 08:17:05;;;;;;;33.30;19.80;;;1.80;99.90;;;;;;5036590;28;20033;-78
2021/01/02 08:19:35;;;;;;;;;;;1.70;99.90;;;;;;5018808;28;20322;-76
2021/01/02 08:22:02;;;;;;;35.35;19.10;;;1.70;99.90;;;;;;5035650;28;19919;-77
2021/01/02 08:24:28;;;;;;;34.67;19.38;;;1.70;99.90;;;;;;5002528;28;20120;-76
2021/01/02 08:26:54;;;;;;;34.03;19.15;;;1.90;99.90;;;;;;5019433;28;20064;-78
2021/01/02 08:29:21;;;;;;;35.70;19.15;;;2.00;99.90;;;;;;5036919;28;20097;-76
2021/01/02 08:31:50;;;;;;;35.08;20.00;;;2.00;99.90;;;;;;5039684;28;20024;-76
2021/01/02 08:34:27;;;;;;;34.92;18.50;;;2.00;99.90;;;;;;5040085;28;20388;-76
2021/01/02 08:37:00;;;;;;;31.05;18.50;;;1.90;99.90;;;;;;5024542;28;20025;-77
2021/01/02 08:39:29;;;;;;;28.58;17.85;;;2.00;99.90;;;;;;5018802;28;20032;-76
2021/01/02 08:41:57;;;;;;;31.75;17.90;;;2.00;99.90;;;;;;5019669;28;20025;-78
2021/01/02 08:44:28;;;;;;;31.98;19.08;;;2.00;99.90;;;;;;5034936;28;20454;-77
2021/01/02 08:47:01;;;;;;;34.95;18.58;;;2.10;99.90;;;;;;5036822;28;20029;-78
2021/01/02 08:49:41;;;;;;;30.85;16.88;;;2.20;99.90;;;;;;5036164;28;20456;-77
2021/01/02 08:52:19;;;;;;;36.42;20.42;;;2.30;99.90;;;;;;5019160;28;20097;-77
2021/01/02 08:54:45;;;;;;;32.25;18.98;;;2.30;99.90;;;;;;5023661;28;20029;-75
2021/01/02 08:57:35;;;;;;;31.35;18.95;;;2.20;99.90;;;;;;5037467;28;20037;-76
2021/01/02 09:00:13;;;;;;;27.70;18.15;;;2.00;99.90;;;;;;5030768;28;20124;-76
2021/01/02 09:02:45;;;;;;;33.30;19.70;;;2.10;99.90;;;;;;5035987;28;20025;-76
2021/01/02 09:05:17;;;;;;;32.17;19.08;;;2.30;99.90;;;;;;5036430;28;20370;-76
2021/01/02 09:08:28;;;;;;;29.65;19.08;;;2.30;99.90;;;;;;5018029;28;20370;-76
2021/01/02 09:10:58;;;;;;;33.83;21.20;;;2.40;99.90;;;;;;4999614;28;20040;-76
2021/01/02 09:13:25;;;;;;;33.37;19.00;;;2.50;99.90;;;;;;5035651;28;20033;-77
2021/01/02 09:16:05;;;;;;;34.00;19.73;;;2.50;99.90;;;;;;5036456;28;20033;-76
2021/01/02 09:18:31;;;;;;;33.40;19.75;;;2.40;99.90;;;;;;5038015;28;20047;-78
2021/01/02 09:21:19;;;;;;;32.08;18.70;;;2.40;99.90;;;;;;5036989;28;20065;-77
2021/01/02 09:23:45;;;;;;;36.75;20.05;;;2.40;99.90;;;;;;5036762;28;20044;-77
2021/01/02 09:26:35;;;;;;;37.85;21.13;;;2.40;99.90;;;;;;5020477;28;20421;-77
2021/01/02 09:29:18;;;;;;;34.97;20.63;;;2.40;99.90;;;;;;5014536;28;20029;-77
2021/01/02 09:31:50;;;;;;;37.60;22.00;;;2.40;99.90;;;;;;5020061;28;20032;-77
2021/01/02 09:34:26;;;;;;;39.30;21.42;;;2.40;99.90;;;;;;5019542;28;20146;-77
2021/01/02 09:36:52;;;;;;;33.08;21.48;;;2.40;99.90;;;;;;5016908;28;20483;-76
2021/01/02 09:39:23;;;;;;;34.60;20.23;;;2.40;99.90;;;;;;5036665;28;20107;-78
2021/01/02 09:41:49;;;;;;;32.38;19.60;;;2.50;99.90;;;;;;5037046;28;20491;-76
2021/01/02 09:44:15;;;;;;;34.90;20.38;;;2.70;99.90;;;;;;5021935;28;20022;-76
2021/01/02 09:46:41;;;;;;;30.08;18.80;;;2.80;99.90;;;;;;5039129;28;20485;-78
2021/01/02 09:49:06;;;;;;;39.13;21.55;;;2.90;99.90;;;;;;5037272;28;20029;-77
2021/01/02 09:51:32;;;;;;;34.08;21.33;;;2.90;99.90;;;;;;5037055;28;20021;-77
2021/01/02 09:53:57;;;;;;;34.25;17.85;;;2.90;92.30;;;;;;5036904;28;20497;-76
2021/01/02 09:56:23;;;;;;;28.58;17.70;;;2.90;94.70;;;;;;5035426;28;20065;-77
2021/01/02 09:58:49;;;;;;;31.02;17.17;;;3.00;92.50;;;;;;5036541;28;20040;-77
2021/01/02 10:01:15;;;;;;;32.80;19.50;;;2.90;87.80;;;;;;5036955;28;20044;-77
2021/01/02 10:04:02;;;;;;;35.00;20.48;;;3.00;96.80;;;;;;5019793;28;20030;-77
2021/01/02 10:06:33;;;;;;;30.10;17.17;;;3.00;68.10;;;;;;5021361;28;20053;-76
2021/01/02 10:09:02;;;;;;;29.05;18.00;;;2.90;92.30;;;;;;5022940;28;20492;-76
2021/01/02 10:11:28;;;;;;;31.40;19.40;;;3.10;81.20;;;;;;5023221;28;20616;-77
2021/01/02 10:13:58;;;;;;;30.52;16.85;;;3.10;24.90;;;;;;5022505;28;20041;-78
2021/01/02 10:16:23;;;;;;;29.02;17.52;;;3.10;30.70;;;;;;5042237;23;20030;-77
2021/01/02 10:18:49;;;;;;;31.13;18.65;;;3.40;16.00;;;;;;5043794;28;20030;-77
2021/01/02 10:21:15;;;;;;;29.45;16.88;;;3.40;6.10;;;;;;5026657;28;20155;-77
2021/01/02 10:23:40;;;;;;;24.10;15.43;;;3.30;1.00;;;;;;5026176;28;20400;-78
2021/01/02 10:26:06;;;;;;;25.25;16.55;;;3.20;4.90;;;;;;5033214;28;20033;-77
2021/01/02 10:28:31;;;;;;;28.27;18.10;;;3.20;6.10;;;;;;5049262;28;20092;-77
2021/01/02 10:30:57;;;;;;;27.52;17.92;;;3.30;1.00;;;;;;5041002;28;20033;-78
2021/01/02 10:33:22;;;;;;;23.77;15.82;;;3.50;1.00;;;;;;5041449;28;20037;-80
2021/01/02 10:35:48;;;;;;;22.33;15.98;;;3.60;1.00;;;;;;5024646;28;20049;-77
2021/01/02 10:38:13;;;;;;;21.75;15.95;;;3.40;1.00;;;;;;5024717;28;20045;-79
2021/01/02 10:40:39;;;;;;;22.20;16.48;;;3.20;1.00;;;;;;5042600;28;20025;-78
2021/01/02 10:43:05;;;;;;;21.48;15.82;;;3.00;19.90;;;;;;5041359;28;20124;-79
2021/01/02 10:45:30;;;;;;;19.42;14.70;;;3.30;1.00;;;;;;5040491;28;20028;-80
2021/01/02 10:47:56;;;;;;;25.15;16.58;;;3.50;1.00;;;;;;5039809;28;20030;-77
2021/01/02 10:50:21;;;;;;;21.00;15.23;;;3.50;1.00;;;;;;5036096;28;20018;-76
2021/01/02 10:52:48;;;;;;;20.08;14.30;;;3.50;1.00;;;;;;5037252;28;20096;-78
2021/01/02 10:55:14;;;;;;;20.88;15.07;;;3.60;1.00;;;;;;5035218;28;20076;-77
2021/01/02 10:57:39;;;;;;;20.98;15.45;;;3.50;1.00;;;;;;5035382;28;20030;-78
2021/01/02 11:00:07;;;;;;;24.08;16.17;;;3.60;1.00;;;;;;5035134;28;20108;-77
2021/01/02 11:02:33;;;;;;;20.15;14.88;;;3.40;1.00;;;;;;5034200;28;20059;-77
2021/01/02 11:04:58;;;;;;;22.02;15.75;;;3.50;1.00;;;;;;5035641;28;20022;-77
2021/01/02 11:07:24;;;;;;;24.67;15.70;;;3.40;1.00;;;;;;5036765;28;20447;-78
2021/01/02 11:09:52;;;;;;;20.92;14.75;;;3.40;1.00;;;;;;5045898;28;20092;-77
2021/01/02 11:12:18;;;;;;;22.27;17.40;;;3.30;1.00;;;;;;5034354;28;20040;-77
2021/01/02 11:14:44;;;;;;;24.65;16.55;;;3.20;1.00;;;;;;5033979;28;20041;-78
2021/01/02 11:17:09;;;;;;;24.50;16.77;;;3.20;1.00;;;;;;5033678;28;20037;-78
2021/01/02 11:19:35;;;;;;;21.88;15.88;;;3.40;1.00;;;;;;5034837;28;20021;-77
2021/01/02 11:22:02;;;;;;;22.15;14.60;;;3.60;1.00;;;;;;5020662;28;20036;-77
2021/01/02 11:24:37;;;;;;;24.60;16.60;;;3.60;1.00;;;;;;5038977;28;20028;-77
2021/01/02 11:27:03;;;;;;;22.13;14.90;;;3.60;1.00;;;;;;5037899;28;20420;-78
2021/01/02 11:29:30;;;;;;;19.67;14.52;;;3.20;1.00;;;;;;5020090;28;20124;-76
2021/01/02 11:31:57;;;;;;;23.50;17.60;;;3.30;1.00;;;;;;5037990;28;20032;-79
2021/01/02 11:34:25;;;;;;;21.60;15.90;;;3.50;1.00;;;;;;5020394;28;20025;-77
2021/01/02 11:36:56;;;;;;;20.63;14.90;;;3.60;1.00;;;;;;5038035;28;20068;-78
2021/01/02 11:39:23;;;;;;;23.10;16.05;;;3.60;1.00;;;;;;5039585;28;20393;-77
2021/01/02 11:41:48;;;;;;;22.90;15.60;;;3.60;1.00;;;;;;5038383;28;20022;-77
2021/01/02 11:44:17;;;;;;;19.05;15.63;;;3.50;1.00;;;;;;5038563;28;20150;-79
2021/01/02 11:46:46;;;;;;;20.52;14.43;;;3.40;1.00;;;;;;5038412;28;20032;-78
2021/01/02 11:49:14;;;;;;;20.40;15.35;;;3.40;1.00;;;;;;5023096;28;20089;-77
2021/01/02 11:51:40;;;;;;;20.17;15.43;;;3.50;1.00;;;;;;5024131;28;20055;-77
2021/01/02 11:54:07;;;;;;;23.00;17.50;;;3.40;1.00;;;;;;5038047;28;20034;-77
2021/01/02 11:56:34;;;;;;;19.25;15.45;;;3.50;1.00;;;;;;5041290;28;20036;-78
2021/01/02 11:59:05;;;;;;;19.17;14.88;;;3.40;1.00;;;;;;5039392;28;20029;-77
2021/01/02 12:01:38;;;;;;;21.30;15.73;;;3.40;1.00;;;;;;5038810;28;20035;-79
2021/01/02 12:04:07;;;;;;;21.00;14.93;;;3.30;1.00;;;;;;5039706;28;20034;-79
2021/01/02 12:06:33;;;;;;;22.58;15.30;;;3.40;1.00;;;;;;5038431;28;20464;-78
2021/01/02 12:08:59;;;;;;;20.52;14.55;;;3.30;1.00;;;;;;5037852;28;20021;-78
2021/01/02 12:11:37;;;;;;;22.27;15.30;;;3.40;1.00;;;;;;5037473;28;20120;-79
2021/01/02 12:14:04;;;;;;;18.83;15.02;;;3.40;1.00;;;;;;5038082;28;20030;-81
2021/01/02 12:16:39;;;;;;;20.35;14.50;;;3.40;1.00;;;;;;5038884;28;20398;-78
2021/01/02 12:19:06;;;;;;;19.77;14.80;;;3.60;1.00;;;;;;5040429;28;20123;-78
2021/01/02 12:21:32;;;;;;;20.33;14.95;;;3.60;1.00;;;;;;5040641;28;20155;-78
2021/01/02 12:23:58;;;;;;;18.52;14.60;;;3.60;1.00;;;;;;5041244;28;20061;-78
2021/01/02 12:26:24;;;;;;;19.08;14.13;;;3.60;1.00;;;;;;5040560;28;20037;-76
2021/01/02 12:28:51;;;;;;;23.75;15.93;;;3.60;1.00;;;;;;5040167;28;20096;-78
2021/01/02 12:31:19;;;;;;;23.38;16.58;;;3.50;1.00;;;;;;5048473;28;20030;-79
2021/01/02 12:33:45;;;;;;;23.98;15.93;;;3.50;1.00;;;;;;5045109;28;20061;-78
2021/01/02 12:36:12;;;;;;;21.30;15.57;;;3.50;1.00;;;;;;5044478;28;20047;-79
2021/01/02 12:38:39;;;;;;;22.25;14.98;;;3.40;1.00;;;;;;5033489;28;20018;-77
2021/01/02 12:41:05;;;;;;;20.92;15.43;;;3.50;1.00;;;;;;5056828;28;20064;-80
2021/01/02 12:43:32;;;;;;;20.98;15.93;;;3.40;1.00;;;;;;5058726;28;20037;-79
2021/01/02 12:45:58;;;;;;;22.70;15.85;;;3.40;1.00;;;;;;5058618;28;20016;-81
2021/01/02 12:48:24;;;;;;;24.38;14.98;;;3.40;1.00;;;;;;5040957;28;20040;-80
2021/01/02 12:50:53;;;;;;;23.75;16.50;;;3.50;1.00;;;;;;5043605;28;20033;-77
2021/01/02 12:53:19;;;;;;;22.05;15.75;;;3.40;1.00;;;;;;5040652;28;20045;-78
2021/01/02 12:55:44;;;;;;;20.25;14.52;;;3.40;1.00;;;;;;5019926;28;20026;-78
2021/01/02 12:58:10;;;;;;;21.58;14.80;;;3.40;1.00;;;;;;5039494;28;20025;-77
2021/01/02 13:00:36;;;;;;;20.70;15.45;;;3.40;1.00;;;;;;5040541;28;20017;-80